sensor_id;sensor_type;location;lat;lon;timestamp;P1;durP1;ratioP1;P2;durP2;ratioP2
73893;SDS011;62699;50.534;12.784;2024-03-02T00:00:59;29.30;;;16.80;;
73893;SDS011;62699;50.534;12.784;2024-03-02T00:05:59;29.70;;;16.20;;
73893;SDS011;62699;50.534;12.784;2024-03-02T00:11:00;32.03;;;18.10;;
73893;SDS011;62699;50.534;12.784;2024-03-02T00:16:02;29.02;;;15.13;;
73893;SDS011;62699;50.534;12.784;2024-03-02T00:21:05;28.58;;;16.38;;
73893;SDS011;62699;50.534;12.784;2024-03-02T00:26:09;29.45;;;15.75;;
73893;SDS011;62699;50.534;12.784;2024-03-02T00:31:12;28.60;;;14.82;;
73893;SDS011;62699;50.534;12.784;2024-03-02T00:36:14;31.58;;;16.70;;
73893;SDS011;62699;50.534;12.784;2024-03-02T00:41:16;28.35;;;16.00;;
73893;SDS011;62699;50.534;12.784;2024-03-02T00:46:20;29.67;;;15.57;;
73893;SDS011;62699;50.534;12.784;2024-03-02T00:51:22;29.40;;;15.63;;
73893;SDS011;62699;50.534;12.784;2024-03-02T00:56:23;40.15;;;19.52;;
73893;SDS011;62699;50.534;12.784;2024-03-02T01:01:24;32.70;;;16.88;;
73893;SDS011;62699;50.534;12.784;2024-03-02T01:06:24;25.80;;;14.98;;
73893;SDS011;62699;50.534;12.784;2024-03-02T01:11:25;28.80;;;15.07;;
73893;SDS011;62699;50.534;12.784;2024-03-02T01:16:25;29.17;;;15.25;;
73893;SDS011;62699;50.534;12.784;2024-03-02T01:21:25;25.17;;;14.85;;
73893;SDS011;62699;50.534;12.784;2024-03-02T01:26:25;25.05;;;15.13;;
73893;SDS011;62699;50.534;12.784;2024-03-02T01:31:26;24.95;;;13.60;;
73893;SDS011;62699;50.534;12.784;2024-03-02T01:36:26;26.55;;;16.38;;
73893;SDS011;62699;50.534;12.784;2024-03-02T01:41:27;34.26;;;17.52;;
73893;SDS011;62699;50.534;12.784;2024-03-02T01:46:27;24.98;;;14.18;;
73893;SDS011;62699;50.534;12.784;2024-03-02T01:51:27;24.33;;;13.93;;
73893;SDS011;62699;50.534;12.784;2024-03-02T01:56:27;23.65;;;13.65;;
73893;SDS011;62699;50.534;12.784;2024-03-02T02:01:28;25.98;;;14.18;;
73893;SDS011;62699;50.534;12.784;2024-03-02T02:06:28;27.73;;;15.48;;
73893;SDS011;62699;50.534;12.784;2024-03-02T02:11:28;26.77;;;15.32;;
73893;SDS011;62699;50.534;12.784;2024-03-02T02:16:28;31.50;;;17.02;;
73893;SDS011;62699;50.534;12.784;2024-03-02T02:21:29;33.40;;;18.63;;
73893;SDS011;62699;50.534;12.784;2024-03-02T02:26:29;34.58;;;18.27;;
73893;SDS011;62699;50.534;12.784;2024-03-02T02:31:36;36.47;;;18.52;;
73893;SDS011;62699;50.534;12.784;2024-03-02T02:36:40;32.25;;;17.55;;
73893;SDS011;62699;50.534;12.784;2024-03-02T02:41:40;30.00;;;17.60;;
73893;SDS011;62699;50.534;12.784;2024-03-02T02:46:41;29.60;;;16.15;;
73893;SDS011;62699;50.534;12.784;2024-03-02T02:51:41;33.70;;;17.50;;
73893;SDS011;62699;50.534;12.784;2024-03-02T02:56:41;30.75;;;17.08;;
73893;SDS011;62699;50.534;12.784;2024-03-02T03:01:42;33.58;;;16.52;;
73893;SDS011;62699;50.534;12.784;2024-03-02T03:06:42;26.92;;;15.30;;
73893;SDS011;62699;50.534;12.784;2024-03-02T03:11:42;27.70;;;14.32;;
73893;SDS011;62699;50.534;12.784;2024-03-02T03:16:42;26.23;;;15.50;;
73893;SDS011;62699;50.534;12.784;2024-03-02T03:21:43;29.90;;;16.20;;
73893;SDS011;62699;50.534;12.784;2024-03-02T03:26:43;29.45;;;15.95;;
73893;SDS011;62699;50.534;12.784;2024-03-02T03:31:44;27.80;;;14.95;;
73893;SDS011;62699;50.534;12.784;2024-03-02T03:36:44;25.77;;;14.65;;
73893;SDS011;62699;50.534;12.784;2024-03-02T03:41:44;24.35;;;13.73;;
73893;SDS011;62699;50.534;12.784;2024-03-02T03:46:44;24.80;;;14.25;;
73893;SDS011;62699;50.534;12.784;2024-03-02T03:51:45;20.88;;;13.10;;
73893;SDS011;62699;50.534;12.784;2024-03-02T03:56:45;24.65;;;15.23;;
73893;SDS011;62699;50.534;12.784;2024-03-02T04:01:45;26.40;;;14.80;;
73893;SDS011;62699;50.534;12.784;2024-03-02T04:06:46;24.83;;;13.25;;
73893;SDS011;62699;50.534;12.784;2024-03-02T04:11:46;24.75;;;13.13;;
73893;SDS011;62699;50.534;12.784;2024-03-02T04:16:46;21.45;;;13.32;;
73893;SDS011;62699;50.534;12.784;2024-03-02T04:21:46;24.08;;;13.27;;
73893;SDS011;62699;50.534;12.784;2024-03-02T04:26:47;23.98;;;13.50;;
73893;SDS011;62699;50.534;12.784;2024-03-02T04:31:47;21.27;;;12.35;;
73893;SDS011;62699;50.534;12.784;2024-03-02T04:36:47;26.60;;;13.20;;
73893;SDS011;62699;50.534;12.784;2024-03-02T04:41:48;24.52;;;13.05;;
73893;SDS011;62699;50.534;12.784;2024-03-02T04:46:48;21.48;;;12.23;;
73893;SDS011;62699;50.534;12.784;2024-03-02T04:51:48;25.42;;;13.18;;
73893;SDS011;62699;50.534;12.784;2024-03-02T04:56:49;29.33;;;13.45;;
73893;SDS011;62699;50.534;12.784;2024-03-02T05:01:49;29.77;;;14.20;;
73893;SDS011;62699;50.534;12.784;2024-03-02T05:06:49;32.53;;;15.95;;
73893;SDS011;62699;50.534;12.784;2024-03-02T05:11:52;26.92;;;13.77;;
73893;SDS011;62699;50.534;12.784;2024-03-02T05:17:10;31.50;;;14.65;;
73893;SDS011;62699;50.534;12.784;2024-03-02T05:22:11;27.83;;;13.57;;
73893;SDS011;62699;50.534;12.784;2024-03-02T05:27:11;25.75;;;14.05;;
73893;SDS011;62699;50.534;12.784;2024-03-02T05:32:11;27.35;;;13.48;;
73893;SDS011;62699;50.534;12.784;2024-03-02T05:37:11;27.54;;;13.26;;
73893;SDS011;62699;50.534;12.784;2024-03-02T05:42:12;32.63;;;13.65;;
73893;SDS011;62699;50.534;12.784;2024-03-02T05:47:12;28.52;;;13.65;;
73893;SDS011;62699;50.534;12.784;2024-03-02T05:52:12;34.50;;;15.05;;
73893;SDS011;62699;50.534;12.784;2024-03-02T05:57:12;34.30;;;14.52;;
73893;SDS011;62699;50.534;12.784;2024-03-02T06:02:17;27.95;;;14.07;;
73893;SDS011;62699;50.534;12.784;2024-03-02T06:07:17;27.50;;;12.85;;
73893;SDS011;62699;50.534;12.784;2024-03-02T06:12:18;30.08;;;12.90;;
73893;SDS011;62699;50.534;12.784;2024-03-02T06:17:18;29.73;;;13.45;;
73893;SDS011;62699;50.534;12.784;2024-03-02T06:22:19;34.30;;;13.70;;
73893;SDS011;62699;50.534;12.784;2024-03-02T06:27:19;23.83;;;11.85;;
73893;SDS011;62699;50.534;12.784;2024-03-02T06:32:19;36.75;;;14.65;;
73893;SDS011;62699;50.534;12.784;2024-03-02T06:37:20;24.85;;;12.50;;
73893;SDS011;62699;50.534;12.784;2024-03-02T06:42:20;30.92;;;15.95;;
73893;SDS011;62699;50.534;12.784;2024-03-02T06:47:20;29.60;;;13.00;;
73893;SDS011;62699;50.534;12.784;2024-03-02T06:52:21;33.00;;;15.20;;
73893;SDS011;62699;50.534;12.784;2024-03-02T06:57:21;36.10;;;20.55;;
73893;SDS011;62699;50.534;12.784;2024-03-02T07:02:21;44.95;;;24.15;;
73893;SDS011;62699;50.534;12.784;2024-03-02T07:07:22;37.00;;;15.48;;
73893;SDS011;62699;50.534;12.784;2024-03-02T07:12:23;36.88;;;15.73;;
73893;SDS011;62699;50.534;12.784;2024-03-02T07:17:23;31.40;;;14.23;;
73893;SDS011;62699;50.534;12.784;2024-03-02T07:22:23;27.73;;;13.73;;
73893;SDS011;62699;50.534;12.784;2024-03-02T07:27:24;36.63;;;19.20;;
73893;SDS011;62699;50.534;12.784;2024-03-02T07:32:24;54.53;;;28.95;;
73893;SDS011;62699;50.534;12.784;2024-03-02T07:37:24;56.35;;;29.55;;
73893;SDS011;62699;50.534;12.784;2024-03-02T07:42:25;54.22;;;29.67;;
73893;SDS011;62699;50.534;12.784;2024-03-02T07:47:25;48.55;;;25.92;;
73893;SDS011;62699;50.534;12.784;2024-03-02T07:52:25;43.00;;;21.20;;
73893;SDS011;62699;50.534;12.784;2024-03-02T07:57:25;35.42;;;18.17;;
73893;SDS011;62699;50.534;12.784;2024-03-02T08:02:26;32.70;;;16.10;;
73893;SDS011;62699;50.534;12.784;2024-03-02T08:07:26;35.70;;;16.88;;
73893;SDS011;62699;50.534;12.784;2024-03-02T08:12:26;31.17;;;15.15;;
73893;SDS011;62699;50.534;12.784;2024-03-02T08:17:27;38.63;;;18.90;;
73893;SDS011;62699;50.534;12.784;2024-03-02T08:22:27;32.35;;;15.05;;
73893;SDS011;62699;50.534;12.784;2024-03-02T08:27:27;37.92;;;18.67;;
73893;SDS011;62699;50.534;12.784;2024-03-02T08:32:28;55.55;;;30.05;;
73893;SDS011;62699;50.534;12.784;2024-03-02T08:37:28;43.92;;;23.38;;
73893;SDS011;62699;50.534;12.784;2024-03-02T08:42:29;56.67;;;31.50;;
73893;SDS011;62699;50.534;12.784;2024-03-02T08:47:29;47.00;;;26.23;;
73893;SDS011;62699;50.534;12.784;2024-03-02T08:52:29;32.58;;;19.35;;
73893;SDS011;62699;50.534;12.784;2024-03-02T08:57:29;24.67;;;13.63;;
73893;SDS011;62699;50.534;12.784;2024-03-02T09:02:30;23.73;;;11.75;;
73893;SDS011;62699;50.534;12.784;2024-03-02T09:07:31;19.17;;;10.05;;
73893;SDS011;62699;50.534;12.784;2024-03-02T09:12:31;19.67;;;9.32;;
73893;SDS011;62699;50.534;12.784;2024-03-02T09:17:32;18.10;;;9.32;;
73893;SDS011;62699;50.534;12.784;2024-03-02T09:22:33;18.45;;;9.88;;
73893;SDS011;62699;50.534;12.784;2024-03-02T09:27:33;21.00;;;9.80;;
73893;SDS011;62699;50.534;12.784;2024-03-02T09:32:33;23.65;;;12.02;;
73893;SDS011;62699;50.534;12.784;2024-03-02T09:37:33;17.58;;;9.35;;
73893;SDS011;62699;50.534;12.784;2024-03-02T09:42:34;16.02;;;8.70;;
73893;SDS011;62699;50.534;12.784;2024-03-02T09:47:35;17.20;;;10.05;;
73893;SDS011;62699;50.534;12.784;2024-03-02T09:52:35;10.57;;;5.65;;
73893;SDS011;62699;50.534;12.784;2024-03-02T09:57:36;10.65;;;5.53;;
73893;SDS011;62699;50.534;12.784;2024-03-02T10:02:36;10.90;;;5.25;;
73893;SDS011;62699;50.534;12.784;2024-03-02T10:07:36;10.23;;;5.00;;
73893;SDS011;62699;50.534;12.784;2024-03-02T10:12:37;8.55;;;4.72;;
73893;SDS011;62699;50.534;12.784;2024-03-02T10:17:37;8.13;;;4.15;;
73893;SDS011;62699;50.534;12.784;2024-03-02T10:22:38;11.65;;;5.07;;
73893;SDS011;62699;50.534;12.784;2024-03-02T10:27:38;10.60;;;4.45;;
73893;SDS011;62699;50.534;12.784;2024-03-02T10:32:39;10.63;;;4.75;;
73893;SDS011;62699;50.534;12.784;2024-03-02T10:37:40;9.77;;;4.72;;
73893;SDS011;62699;50.534;12.784;2024-03-02T10:42:42;10.73;;;4.88;;
73893;SDS011;62699;50.534;12.784;2024-03-02T10:47:44;9.35;;;4.65;;
73893;SDS011;62699;50.534;12.784;2024-03-02T10:52:47;9.25;;;4.50;;
73893;SDS011;62699;50.534;12.784;2024-03-02T11:02:56;8.70;;;4.65;;
73893;SDS011;62699;50.534;12.784;2024-03-02T11:08:02;9.20;;;4.45;;
73893;SDS011;62699;50.534;12.784;2024-03-02T11:13:08;7.22;;;3.45;;
73893;SDS011;62699;50.534;12.784;2024-03-02T11:18:09;7.90;;;4.00;;
73893;SDS011;62699;50.534;12.784;2024-03-02T11:23:10;6.65;;;3.30;;
73893;SDS011;62699;50.534;12.784;2024-03-02T11:28:11;8.63;;;3.80;;
73893;SDS011;62699;50.534;12.784;2024-03-02T11:33:11;7.45;;;3.85;;
73893;SDS011;62699;50.534;12.784;2024-03-02T11:38:11;7.78;;;3.85;;
73893;SDS011;62699;50.534;12.784;2024-03-02T11:43:11;8.00;;;3.75;;
73893;SDS011;62699;50.534;12.784;2024-03-02T11:48:15;8.07;;;3.60;;
73893;SDS011;62699;50.534;12.784;2024-03-02T11:53:15;9.27;;;4.10;;
73893;SDS011;62699;50.534;12.784;2024-03-02T11:58:17;8.32;;;4.57;;
73893;SDS011;62699;50.534;12.784;2024-03-02T12:03:23;8.35;;;4.75;;
73893;SDS011;62699;50.534;12.784;2024-03-02T12:08:27;10.35;;;5.13;;
73893;SDS011;62699;50.534;12.784;2024-03-02T12:13:28;9.52;;;4.93;;
73893;SDS011;62699;50.534;12.784;2024-03-02T12:18:28;11.55;;;5.38;;
73893;SDS011;62699;50.534;12.784;2024-03-02T12:23:28;10.75;;;5.50;;
73893;SDS011;62699;50.534;12.784;2024-03-02T12:28:29;9.38;;;5.15;;
73893;SDS011;62699;50.534;12.784;2024-03-02T12:33:29;9.50;;;4.88;;
73893;SDS011;62699;50.534;12.784;2024-03-02T12:38:30;11.43;;;5.07;;
73893;SDS011;62699;50.534;12.784;2024-03-02T12:43:30;10.43;;;4.57;;
73893;SDS011;62699;50.534;12.784;2024-03-02T12:48:31;10.57;;;5.03;;
73893;SDS011;62699;50.534;12.784;2024-03-02T12:53:33;9.18;;;4.72;;
73893;SDS011;62699;50.534;12.784;2024-03-02T12:58:38;7.63;;;4.05;;
73893;SDS011;62699;50.534;12.784;2024-03-02T13:03:42;7.43;;;3.92;;
73893;SDS011;62699;50.534;12.784;2024-03-02T13:08:42;9.57;;;4.60;;
73893;SDS011;62699;50.534;12.784;2024-03-02T13:13:42;8.65;;;4.20;;
73893;SDS011;62699;50.534;12.784;2024-03-02T13:18:44;12.07;;;4.47;;
73893;SDS011;62699;50.534;12.784;2024-03-02T13:23:44;9.93;;;4.93;;
73893;SDS011;62699;50.534;12.784;2024-03-02T13:28:45;8.70;;;4.20;;
73893;SDS011;62699;50.534;12.784;2024-03-02T13:33:45;10.15;;;4.68;;
73893;SDS011;62699;50.534;12.784;2024-03-02T13:38:46;11.27;;;4.32;;
73893;SDS011;62699;50.534;12.784;2024-03-02T13:43:46;6.88;;;3.55;;
73893;SDS011;62699;50.534;12.784;2024-03-02T13:48:47;7.38;;;3.22;;
73893;SDS011;62699;50.534;12.784;2024-03-02T13:53:47;8.23;;;3.50;;
73893;SDS011;62699;50.534;12.784;2024-03-02T13:58:47;7.50;;;3.10;;
73893;SDS011;62699;50.534;12.784;2024-03-02T14:03:47;7.07;;;3.20;;
73893;SDS011;62699;50.534;12.784;2024-03-02T14:08:48;7.70;;;3.08;;
73893;SDS011;62699;50.534;12.784;2024-03-02T14:13:48;6.72;;;2.97;;
73893;SDS011;62699;50.534;12.784;2024-03-02T14:18:53;8.55;;;3.72;;
73893;SDS011;62699;50.534;12.784;2024-03-02T14:23:54;5.60;;;2.90;;
73893;SDS011;62699;50.534;12.784;2024-03-02T14:28:55;12.25;;;3.47;;
73893;SDS011;62699;50.534;12.784;2024-03-02T14:33:55;9.90;;;4.93;;
73893;SDS011;62699;50.534;12.784;2024-03-02T14:38:56;6.50;;;2.97;;
73893;SDS011;62699;50.534;12.784;2024-03-02T14:43:56;6.97;;;3.40;;
73893;SDS011;62699;50.534;12.784;2024-03-02T14:48:56;8.60;;;3.50;;
73893;SDS011;62699;50.534;12.784;2024-03-02T14:53:58;7.72;;;3.58;;
73893;SDS011;62699;50.534;12.784;2024-03-02T14:58:58;10.13;;;4.38;;
73893;SDS011;62699;50.534;12.784;2024-03-02T15:03:58;9.98;;;4.47;;
73893;SDS011;62699;50.534;12.784;2024-03-02T15:08:58;12.40;;;5.38;;
73893;SDS011;62699;50.534;12.784;2024-03-02T15:14:01;13.77;;;5.80;;
73893;SDS011;62699;50.534;12.784;2024-03-02T15:19:01;11.38;;;5.05;;
73893;SDS011;62699;50.534;12.784;2024-03-02T15:24:02;13.10;;;6.20;;
73893;SDS011;62699;50.534;12.784;2024-03-02T15:29:03;14.38;;;5.85;;
73893;SDS011;62699;50.534;12.784;2024-03-02T15:34:04;13.13;;;5.97;;
73893;SDS011;62699;50.534;12.784;2024-03-02T15:39:04;11.57;;;5.50;;
73893;SDS011;62699;50.534;12.784;2024-03-02T15:44:08;10.77;;;4.95;;
73893;SDS011;62699;50.534;12.784;2024-03-02T15:49:09;9.32;;;5.03;;
73893;SDS011;62699;50.534;12.784;2024-03-02T15:54:10;10.93;;;4.88;;
73893;SDS011;62699;50.534;12.784;2024-03-02T15:59:10;10.70;;;5.05;;
73893;SDS011;62699;50.534;12.784;2024-03-02T16:04:11;9.73;;;4.97;;
73893;SDS011;62699;50.534;12.784;2024-03-02T16:09:11;10.90;;;4.82;;
73893;SDS011;62699;50.534;12.784;2024-03-02T16:14:13;14.00;;;5.50;;
73893;SDS011;62699;50.534;12.784;2024-03-02T16:19:14;10.98;;;4.75;;
73893;SDS011;62699;50.534;12.784;2024-03-02T16:24:14;12.95;;;4.93;;
73893;SDS011;62699;50.534;12.784;2024-03-02T16:29:14;10.40;;;4.78;;
73893;SDS011;62699;50.534;12.784;2024-03-02T16:34:15;11.55;;;5.32;;
73893;SDS011;62699;50.534;12.784;2024-03-02T16:39:15;10.68;;;5.43;;
73893;SDS011;62699;50.534;12.784;2024-03-02T16:44:15;13.70;;;5.90;;
73893;SDS011;62699;50.534;12.784;2024-03-02T16:49:16;13.35;;;6.15;;
73893;SDS011;62699;50.534;12.784;2024-03-02T16:54:17;17.10;;;7.32;;
73893;SDS011;62699;50.534;12.784;2024-03-02T16:59:17;16.80;;;8.10;;
73893;SDS011;62699;50.534;12.784;2024-03-02T17:04:17;17.38;;;7.78;;
73893;SDS011;62699;50.534;12.784;2024-03-02T17:09:17;19.60;;;8.60;;
73893;SDS011;62699;50.534;12.784;2024-03-02T17:14:18;18.83;;;7.93;;
73893;SDS011;62699;50.534;12.784;2024-03-02T17:19:18;18.02;;;9.25;;
73893;SDS011;62699;50.534;12.784;2024-03-02T17:24:18;22.05;;;9.05;;
73893;SDS011;62699;50.534;12.784;2024-03-02T17:29:18;22.23;;;9.80;;
73893;SDS011;62699;50.534;12.784;2024-03-02T17:34:18;19.10;;;9.13;;
73893;SDS011;62699;50.534;12.784;2024-03-02T17:39:19;17.65;;;8.80;;
73893;SDS011;62699;50.534;12.784;2024-03-02T17:44:19;18.85;;;9.48;;
73893;SDS011;62699;50.534;12.784;2024-03-02T17:49:20;19.00;;;9.50;;
73893;SDS011;62699;50.534;12.784;2024-03-02T17:54:20;19.77;;;9.48;;
73893;SDS011;62699;50.534;12.784;2024-03-02T17:59:20;19.30;;;10.50;;
73893;SDS011;62699;50.534;12.784;2024-03-02T18:04:21;68.30;;;29.38;;
73893;SDS011;62699;50.534;12.784;2024-03-02T18:09:22;33.72;;;17.83;;
73893;SDS011;62699;50.534;12.784;2024-03-02T18:14:22;107.95;;;47.85;;
73893;SDS011;62699;50.534;12.784;2024-03-02T18:19:23;28.88;;;15.27;;
73893;SDS011;62699;50.534;12.784;2024-03-02T18:24:23;56.20;;;27.00;;
73893;SDS011;62699;50.534;12.784;2024-03-02T18:29:27;163.43;;;64.07;;
73893;SDS011;62699;50.534;12.784;2024-03-02T18:34:28;67.82;;;34.25;;
73893;SDS011;62699;50.534;12.784;2024-03-02T18:39:28;27.83;;;15.93;;
73893;SDS011;62699;50.534;12.784;2024-03-02T18:44:28;85.40;;;43.75;;
73893;SDS011;62699;50.534;12.784;2024-03-02T18:49:29;49.83;;;26.23;;
73893;SDS011;62699;50.534;12.784;2024-03-02T18:54:29;26.55;;;15.77;;
73893;SDS011;62699;50.534;12.784;2024-03-02T18:59:29;32.15;;;17.92;;
73893;SDS011;62699;50.534;12.784;2024-03-02T19:04:30;20.50;;;11.63;;
73893;SDS011;62699;50.534;12.784;2024-03-02T19:09:30;15.43;;;7.85;;
73893;SDS011;62699;50.534;12.784;2024-03-02T19:14:31;21.83;;;9.40;;
73893;SDS011;62699;50.534;12.784;2024-03-02T19:19:32;14.57;;;8.45;;
73893;SDS011;62699;50.534;12.784;2024-03-02T19:24:38;35.70;;;17.50;;
73893;SDS011;62699;50.534;12.784;2024-03-02T19:29:39;31.70;;;16.85;;
73893;SDS011;62699;50.534;12.784;2024-03-02T19:34:39;21.00;;;13.25;;
73893;SDS011;62699;50.534;12.784;2024-03-02T19:39:39;20.60;;;11.75;;
73893;SDS011;62699;50.534;12.784;2024-03-02T19:44:41;24.77;;;12.85;;
73893;SDS011;62699;50.534;12.784;2024-03-02T19:49:42;24.92;;;14.43;;
73893;SDS011;62699;50.534;12.784;2024-03-02T19:54:43;15.85;;;9.65;;
73893;SDS011;62699;50.534;12.784;2024-03-02T19:59:43;30.15;;;15.13;;
73893;SDS011;62699;50.534;12.784;2024-03-02T20:04:44;28.45;;;15.77;;
73893;SDS011;62699;50.534;12.784;2024-03-02T20:09:45;34.40;;;16.35;;
73893;SDS011;62699;50.534;12.784;2024-03-02T20:14:48;21.23;;;11.35;;
73893;SDS011;62699;50.534;12.784;2024-03-02T20:19:48;17.02;;;10.05;;
73893;SDS011;62699;50.534;12.784;2024-03-02T20:24:48;23.48;;;12.32;;
73893;SDS011;62699;50.534;12.784;2024-03-02T20:29:51;22.45;;;12.40;;
73893;SDS011;62699;50.534;12.784;2024-03-02T20:34:51;17.63;;;10.25;;
73893;SDS011;62699;50.534;12.784;2024-03-02T20:39:51;19.75;;;10.75;;
73893;SDS011;62699;50.534;12.784;2024-03-02T20:44:53;22.70;;;11.52;;
73893;SDS011;62699;50.534;12.784;2024-03-02T20:49:53;23.70;;;12.25;;
73893;SDS011;62699;50.534;12.784;2024-03-02T20:54:53;27.05;;;13.40;;
73893;SDS011;62699;50.534;12.784;2024-03-02T20:59:54;23.65;;;13.75;;
73893;SDS011;62699;50.534;12.784;2024-03-02T21:04:54;21.45;;;12.10;;
73893;SDS011;62699;50.534;12.784;2024-03-02T21:09:55;22.15;;;12.85;;
73893;SDS011;62699;50.534;12.784;2024-03-02T21:14:57;33.53;;;18.25;;
73893;SDS011;62699;50.534;12.784;2024-03-02T21:19:57;30.25;;;15.05;;
73893;SDS011;62699;50.534;12.784;2024-03-02T21:24:57;24.42;;;13.90;;
73893;SDS011;62699;50.534;12.784;2024-03-02T21:30:01;35.75;;;17.92;;
73893;SDS011;62699;50.534;12.784;2024-03-02T21:35:01;24.10;;;14.70;;
73893;SDS011;62699;50.534;12.784;2024-03-02T21:40:01;28.92;;;16.25;;
73893;SDS011;62699;50.534;12.784;2024-03-02T21:45:02;21.35;;;12.13;;
73893;SDS011;62699;50.534;12.784;2024-03-02T21:50:04;38.78;;;21.98;;
73893;SDS011;62699;50.534;12.784;2024-03-02T21:55:04;32.88;;;17.70;;
73893;SDS011;62699;50.534;12.784;2024-03-02T22:00:05;26.45;;;15.25;;
73893;SDS011;62699;50.534;12.784;2024-03-02T22:05:06;27.52;;;13.32;;
73893;SDS011;62699;50.534;12.784;2024-03-02T22:10:07;35.80;;;17.48;;
73893;SDS011;62699;50.534;12.784;2024-03-02T22:15:07;28.00;;;14.80;;
73893;SDS011;62699;50.534;12.784;2024-03-02T22:20:08;24.45;;;14.63;;
73893;SDS011;62699;50.534;12.784;2024-03-02T22:25:10;34.80;;;17.65;;
73893;SDS011;62699;50.534;12.784;2024-03-02T22:30:10;28.77;;;14.15;;
73893;SDS011;62699;50.534;12.784;2024-03-02T22:35:11;23.20;;;12.85;;
73893;SDS011;62699;50.534;12.784;2024-03-02T22:40:11;28.58;;;15.18;;
73893;SDS011;62699;50.534;12.784;2024-03-02T22:45:12;22.38;;;12.90;;
73893;SDS011;62699;50.534;12.784;2024-03-02T22:50:13;29.75;;;14.45;;
73893;SDS011;62699;50.534;12.784;2024-03-02T22:55:13;29.83;;;15.15;;
73893;SDS011;62699;50.534;12.784;2024-03-02T23:00:13;22.73;;;13.63;;
73893;SDS011;62699;50.534;12.784;2024-03-02T23:05:31;23.58;;;13.93;;
73893;SDS011;62699;50.534;12.784;2024-03-02T23:10:31;29.23;;;14.35;;
73893;SDS011;62699;50.534;12.784;2024-03-02T23:15:32;24.45;;;13.38;;
73893;SDS011;62699;50.534;12.784;2024-03-02T23:20:32;24.40;;;13.05;;
73893;SDS011;62699;50.534;12.784;2024-03-02T23:25:32;27.38;;;14.77;;
73893;SDS011;62699;50.534;12.784;2024-03-02T23:30:36;28.33;;;13.85;;
73893;SDS011;62699;50.534;12.784;2024-03-02T23:35:36;28.90;;;15.70;;
73893;SDS011;62699;50.534;12.784;2024-03-02T23:40:36;28.52;;;14.60;;
73893;SDS011;62699;50.534;12.784;2024-03-02T23:45:40;41.88;;;22.38;;
73893;SDS011;62699;50.534;12.784;2024-03-02T23:50:40;26.13;;;12.80;;
73893;SDS011;62699;50.534;12.784;2024-03-02T23:55:40;27.35;;;13.77;;
